sensor_id;sensor_type;location;lat;lon;timestamp;temperature;humidity
24250;DHT22;12379;49.820;8.648;2022-12-31T00:00:33;13.10;99.90
24250;DHT22;12379;49.820;8.648;2022-12-31T00:02:59;13.10;99.90
24250;DHT22;12379;49.820;8.648;2022-12-31T00:05:24;13.10;99.90
24250;DHT22;12379;49.820;8.648;2022-12-31T00:07:50;13.10;99.90
24250;DHT22;12379;49.820;8.648;2022-12-31T00:10:16;13.20;99.90
24250;DHT22;12379;49.820;8.648;2022-12-31T00:12:41;13.10;99.90
24250;DHT22;12379;49.820;8.648;2022-12-31T00:15:07;13.10;99.90
24250;DHT22;12379;49.820;8.648;2022-12-31T00:17:33;13.10;99.90
24250;DHT22;12379;49.820;8.648;2022-12-31T00:19:58;13.20;99.90
24250;DHT22;12379;49.820;8.648;2022-12-31T00:22:24;13.20;99.90
24250;DHT22;12379;49.820;8.648;2022-12-31T00:24:49;13.10;99.90
24250;DHT22;12379;49.820;8.648;2022-12-31T00:27:15;13.20;99.90
24250;DHT22;12379;49.820;8.648;2022-12-31T00:29:41;13.20;99.90
24250;DHT22;12379;49.820;8.648;2022-12-31T00:32:06;13.30;99.90
24250;DHT22;12379;49.820;8.648;2022-12-31T00:34:32;13.30;99.90
24250;DHT22;12379;49.820;8.648;2022-12-31T00:36:57;13.20;99.90
24250;DHT22;12379;49.820;8.648;2022-12-31T00:39:23;13.30;99.90
24250;DHT22;12379;49.820;8.648;2022-12-31T00:41:49;13.30;99.90
24250;DHT22;12379;49.820;8.648;2022-12-31T00:44:14;13.30;99.90
24250;DHT22;12379;49.820;8.648;2022-12-31T00:46:40;13.40;99.90
24250;DHT22;12379;49.820;8.648;2022-12-31T00:49:06;13.40;99.90
24250;DHT22;12379;49.820;8.648;2022-12-31T00:51:31;13.30;99.90
24250;DHT22;12379;49.820;8.648;2022-12-31T00:53:57;13.30;99.90
24250;DHT22;12379;49.820;8.648;2022-12-31T00:56:25;13.20;99.90
24250;DHT22;12379;49.820;8.648;2022-12-31T00:58:51;13.20;99.90
24250;DHT22;12379;49.820;8.648;2022-12-31T01:01:19;13.20;99.90
24250;DHT22;12379;49.820;8.648;2022-12-31T01:03:46;13.30;99.90
24250;DHT22;12379;49.820;8.648;2022-12-31T01:06:12;13.30;99.90
24250;DHT22;12379;49.820;8.648;2022-12-31T01:08:38;13.30;99.90
24250;DHT22;12379;49.820;8.648;2022-12-31T01:11:04;13.30;99.90
24250;DHT22;12379;49.820;8.648;2022-12-31T01:13:57;13.30;99.90
24250;DHT22;12379;49.820;8.648;2022-12-31T01:16:29;13.30;99.90
24250;DHT22;12379;49.820;8.648;2022-12-31T01:18:58;13.20;99.90
24250;DHT22;12379;49.820;8.648;2022-12-31T01:21:24;13.20;99.90
24250;DHT22;12379;49.820;8.648;2022-12-31T01:23:50;13.20;99.90
24250;DHT22;12379;49.820;8.648;2022-12-31T01:26:16;13.10;99.90
24250;DHT22;12379;49.820;8.648;2022-12-31T01:28:42;13.20;99.90
24250;DHT22;12379;49.820;8.648;2022-12-31T01:31:10;13.20;99.90
24250;DHT22;12379;49.820;8.648;2022-12-31T01:33:36;13.20;99.90
24250;DHT22;12379;49.820;8.648;2022-12-31T01:36:08;13.20;99.90
24250;DHT22;12379;49.820;8.648;2022-12-31T01:38:35;13.20;99.90
24250;DHT22;12379;49.820;8.648;2022-12-31T01:41:01;13.20;99.90
24250;DHT22;12379;49.820;8.648;2022-12-31T01:46:39;13.20;99.90
24250;DHT22;12379;49.820;8.648;2022-12-31T01:49:25;13.20;99.90
24250;DHT22;12379;49.820;8.648;2022-12-31T01:51:59;13.30;99.90
24250;DHT22;12379;49.820;8.648;2022-12-31T01:54:26;13.30;99.90
24250;DHT22;12379;49.820;8.648;2022-12-31T01:56:54;13.20;99.90
24250;DHT22;12379;49.820;8.648;2022-12-31T01:59:21;13.30;99.90
24250;DHT22;12379;49.820;8.648;2022-12-31T02:01:47;13.30;99.90
24250;DHT22;12379;49.820;8.648;2022-12-31T02:04:21;13.30;99.90
24250;DHT22;12379;49.820;8.648;2022-12-31T02:06:52;13.30;99.90
24250;DHT22;12379;49.820;8.648;2022-12-31T02:09:19;13.40;99.90
24250;DHT22;12379;49.820;8.648;2022-12-31T02:11:45;13.40;99.90
24250;DHT22;12379;49.820;8.648;2022-12-31T02:14:45;13.40;99.90
24250;DHT22;12379;49.820;8.648;2022-12-31T02:31:07;13.40;99.90
24250;DHT22;12379;49.820;8.648;2022-12-31T02:33:45;13.50;99.90
24250;DHT22;12379;49.820;8.648;2022-12-31T02:36:20;13.50;99.90
24250;DHT22;12379;49.820;8.648;2022-12-31T02:38:47;13.40;99.90
24250;DHT22;12379;49.820;8.648;2022-12-31T02:41:16;13.50;99.90
24250;DHT22;12379;49.820;8.648;2022-12-31T02:44:16;13.50;99.90
24250;DHT22;12379;49.820;8.648;2022-12-31T02:55:38;13.50;99.90
24250;DHT22;12379;49.820;8.648;2022-12-31T03:01:15;13.60;99.90
24250;DHT22;12379;49.820;8.648;2022-12-31T03:04:00;13.60;99.90
24250;DHT22;12379;49.820;8.648;2022-12-31T03:06:48;13.70;99.90
24250;DHT22;12379;49.820;8.648;2022-12-31T03:09:14;13.70;99.90
24250;DHT22;12379;49.820;8.648;2022-12-31T03:11:40;13.70;99.90
24250;DHT22;12379;49.820;8.648;2022-12-31T03:14:24;13.70;99.90
24250;DHT22;12379;49.820;8.648;2022-12-31T03:16:49;13.70;99.90
24250;DHT22;12379;49.820;8.648;2022-12-31T03:19:15;13.80;99.90
24250;DHT22;12379;49.820;8.648;2022-12-31T03:21:59;13.90;99.90
24250;DHT22;12379;49.820;8.648;2022-12-31T03:24:43;13.80;99.90
24250;DHT22;12379;49.820;8.648;2022-12-31T03:27:27;13.80;99.90
24250;DHT22;12379;49.820;8.648;2022-12-31T03:29:53;13.80;99.90
24250;DHT22;12379;49.820;8.648;2022-12-31T03:32:18;13.80;99.90
24250;DHT22;12379;49.820;8.648;2022-12-31T03:34:44;13.80;99.90
24250;DHT22;12379;49.820;8.648;2022-12-31T03:37:10;13.90;99.90
24250;DHT22;12379;49.820;8.648;2022-12-31T03:39:35;13.80;99.90
24250;DHT22;12379;49.820;8.648;2022-12-31T03:42:01;13.80;99.90
24250;DHT22;12379;49.820;8.648;2022-12-31T03:44:26;13.80;99.90
24250;DHT22;12379;49.820;8.648;2022-12-31T03:46:52;13.80;99.90
24250;DHT22;12379;49.820;8.648;2022-12-31T03:49:17;13.90;99.90
24250;DHT22;12379;49.820;8.648;2022-12-31T03:51:43;13.90;99.90
24250;DHT22;12379;49.820;8.648;2022-12-31T03:54:08;13.90;99.90
24250;DHT22;12379;49.820;8.648;2022-12-31T03:56:34;13.90;99.90
24250;DHT22;12379;49.820;8.648;2022-12-31T03:58:59;14.00;99.90
24250;DHT22;12379;49.820;8.648;2022-12-31T04:01:25;14.00;99.90
24250;DHT22;12379;49.820;8.648;2022-12-31T04:03:50;14.10;99.90
24250;DHT22;12379;49.820;8.648;2022-12-31T04:06:16;14.00;99.90
24250;DHT22;12379;49.820;8.648;2022-12-31T04:08:42;14.00;99.90
24250;DHT22;12379;49.820;8.648;2022-12-31T04:11:07;14.10;99.90
24250;DHT22;12379;49.820;8.648;2022-12-31T04:13:33;14.20;99.90
24250;DHT22;12379;49.820;8.648;2022-12-31T04:15:58;14.10;99.90
24250;DHT22;12379;49.820;8.648;2022-12-31T04:18:24;14.20;99.90
24250;DHT22;12379;49.820;8.648;2022-12-31T04:20:49;14.20;99.90
24250;DHT22;12379;49.820;8.648;2022-12-31T04:23:15;14.20;99.90
24250;DHT22;12379;49.820;8.648;2022-12-31T04:25:41;14.20;99.90
24250;DHT22;12379;49.820;8.648;2022-12-31T04:28:06;14.20;99.90
24250;DHT22;12379;49.820;8.648;2022-12-31T04:30:32;14.20;99.90
24250;DHT22;12379;49.820;8.648;2022-12-31T04:32:57;14.20;99.90
24250;DHT22;12379;49.820;8.648;2022-12-31T04:35:23;14.20;99.90
24250;DHT22;12379;49.820;8.648;2022-12-31T04:37:48;14.30;99.90
24250;DHT22;12379;49.820;8.648;2022-12-31T04:40:14;14.20;99.90
24250;DHT22;12379;49.820;8.648;2022-12-31T04:42:39;14.30;99.90
24250;DHT22;12379;49.820;8.648;2022-12-31T04:45:06;14.30;99.90
24250;DHT22;12379;49.820;8.648;2022-12-31T04:47:31;14.30;99.90
24250;DHT22;12379;49.820;8.648;2022-12-31T04:49:57;14.30;99.90
24250;DHT22;12379;49.820;8.648;2022-12-31T04:52:22;14.20;99.90
24250;DHT22;12379;49.820;8.648;2022-12-31T04:54:48;14.20;99.90
24250;DHT22;12379;49.820;8.648;2022-12-31T04:57:13;14.20;99.90
24250;DHT22;12379;49.820;8.648;2022-12-31T04:59:39;14.20;99.90
24250;DHT22;12379;49.820;8.648;2022-12-31T05:02:05;14.30;99.90
24250;DHT22;12379;49.820;8.648;2022-12-31T05:04:30;14.40;99.90
24250;DHT22;12379;49.820;8.648;2022-12-31T05:06:56;14.50;99.90
24250;DHT22;12379;49.820;8.648;2022-12-31T05:09:21;14.50;99.90
24250;DHT22;12379;49.820;8.648;2022-12-31T05:11:48;14.50;99.90
24250;DHT22;12379;49.820;8.648;2022-12-31T05:14:14;14.60;99.90
24250;DHT22;12379;49.820;8.648;2022-12-31T05:16:39;14.70;99.90
24250;DHT22;12379;49.820;8.648;2022-12-31T05:19:05;14.70;99.90
24250;DHT22;12379;49.820;8.648;2022-12-31T05:21:34;14.70;99.90
24250;DHT22;12379;49.820;8.648;2022-12-31T05:23:59;14.90;99.90
24250;DHT22;12379;49.820;8.648;2022-12-31T05:26:25;15.00;99.90
24250;DHT22;12379;49.820;8.648;2022-12-31T05:28:50;15.10;99.90
24250;DHT22;12379;49.820;8.648;2022-12-31T05:31:16;15.10;99.90
24250;DHT22;12379;49.820;8.648;2022-12-31T05:33:41;15.10;99.90
24250;DHT22;12379;49.820;8.648;2022-12-31T05:36:07;15.10;99.90
24250;DHT22;12379;49.820;8.648;2022-12-31T05:38:32;15.20;99.90
24250;DHT22;12379;49.820;8.648;2022-12-31T05:41:02;15.10;99.90
24250;DHT22;12379;49.820;8.648;2022-12-31T05:43:28;15.20;99.90
24250;DHT22;12379;49.820;8.648;2022-12-31T05:45:54;15.20;99.90
24250;DHT22;12379;49.820;8.648;2022-12-31T05:48:20;15.10;99.90
24250;DHT22;12379;49.820;8.648;2022-12-31T05:50:45;15.20;99.90
24250;DHT22;12379;49.820;8.648;2022-12-31T05:53:11;15.30;99.90
24250;DHT22;12379;49.820;8.648;2022-12-31T05:55:36;15.30;99.90
24250;DHT22;12379;49.820;8.648;2022-12-31T05:58:02;15.30;99.90
24250;DHT22;12379;49.820;8.648;2022-12-31T06:00:27;15.30;99.90
24250;DHT22;12379;49.820;8.648;2022-12-31T06:02:53;15.30;99.90
24250;DHT22;12379;49.820;8.648;2022-12-31T06:05:18;15.40;99.90
24250;DHT22;12379;49.820;8.648;2022-12-31T06:07:44;15.30;99.90
24250;DHT22;12379;49.820;8.648;2022-12-31T06:10:09;15.40;99.90
24250;DHT22;12379;49.820;8.648;2022-12-31T06:12:35;15.40;99.90
24250;DHT22;12379;49.820;8.648;2022-12-31T06:15:01;15.40;99.90
24250;DHT22;12379;49.820;8.648;2022-12-31T06:17:26;15.40;99.90
24250;DHT22;12379;49.820;8.648;2022-12-31T06:19:53;15.50;99.90
24250;DHT22;12379;49.820;8.648;2022-12-31T06:22:19;15.50;99.90
24250;DHT22;12379;49.820;8.648;2022-12-31T06:24:44;15.50;99.90
24250;DHT22;12379;49.820;8.648;2022-12-31T06:27:10;15.70;99.90
24250;DHT22;12379;49.820;8.648;2022-12-31T06:29:35;15.70;99.90
24250;DHT22;12379;49.820;8.648;2022-12-31T06:32:01;15.70;99.90
24250;DHT22;12379;49.820;8.648;2022-12-31T06:34:26;15.80;99.90
24250;DHT22;12379;49.820;8.648;2022-12-31T06:36:52;15.80;99.90
24250;DHT22;12379;49.820;8.648;2022-12-31T06:39:17;15.70;99.90
24250;DHT22;12379;49.820;8.648;2022-12-31T06:41:43;15.70;99.90
24250;DHT22;12379;49.820;8.648;2022-12-31T06:44:08;15.60;99.90
24250;DHT22;12379;49.820;8.648;2022-12-31T06:46:34;15.50;99.90
24250;DHT22;12379;49.820;8.648;2022-12-31T06:48:59;15.50;99.90
24250;DHT22;12379;49.820;8.648;2022-12-31T06:51:25;15.50;99.90
24250;DHT22;12379;49.820;8.648;2022-12-31T06:53:50;15.50;99.90
24250;DHT22;12379;49.820;8.648;2022-12-31T06:56:19;15.40;99.90
24250;DHT22;12379;49.820;8.648;2022-12-31T06:58:46;15.40;99.90
24250;DHT22;12379;49.820;8.648;2022-12-31T07:04:04;15.40;99.90
24250;DHT22;12379;49.820;8.648;2022-12-31T07:06:53;15.40;99.90
24250;DHT22;12379;49.820;8.648;2022-12-31T07:20:22;15.60;99.90
24250;DHT22;12379;49.820;8.648;2022-12-31T07:22:48;15.50;99.90
24250;DHT22;12379;49.820;8.648;2022-12-31T07:25:15;15.50;99.90
24250;DHT22;12379;49.820;8.648;2022-12-31T07:28:12;15.50;99.90
24250;DHT22;12379;49.820;8.648;2022-12-31T07:30:47;15.50;99.90
24250;DHT22;12379;49.820;8.648;2022-12-31T07:33:39;15.40;99.90
24250;DHT22;12379;49.820;8.648;2022-12-31T07:39:06;15.20;99.90
24250;DHT22;12379;49.820;8.648;2022-12-31T07:41:53;15.20;99.90
24250;DHT22;12379;49.820;8.648;2022-12-31T07:47:23;15.10;99.90
24250;DHT22;12379;49.820;8.648;2022-12-31T07:49:50;15.00;99.90
24250;DHT22;12379;49.820;8.648;2022-12-31T07:52:16;15.00;99.90
24250;DHT22;12379;49.820;8.648;2022-12-31T07:54:42;15.00;99.90
24250;DHT22;12379;49.820;8.648;2022-12-31T07:57:10;14.90;99.90
24250;DHT22;12379;49.820;8.648;2022-12-31T08:02:40;14.90;99.90
24250;DHT22;12379;49.820;8.648;2022-12-31T08:05:13;14.90;99.90
24250;DHT22;12379;49.820;8.648;2022-12-31T08:13:06;15.20;99.90
24250;DHT22;12379;49.820;8.648;2022-12-31T08:15:36;15.20;99.90
24250;DHT22;12379;49.820;8.648;2022-12-31T08:18:02;15.30;99.90
24250;DHT22;12379;49.820;8.648;2022-12-31T08:20:29;15.40;99.90
24250;DHT22;12379;49.820;8.648;2022-12-31T08:23:17;15.30;99.90
24250;DHT22;12379;49.820;8.648;2022-12-31T08:28:55;15.30;99.90
24250;DHT22;12379;49.820;8.648;2022-12-31T08:34:32;15.30;99.90
24250;DHT22;12379;49.820;8.648;2022-12-31T08:37:03;15.40;99.90
24250;DHT22;12379;49.820;8.648;2022-12-31T08:41:56;15.40;99.90
24250;DHT22;12379;49.820;8.648;2022-12-31T08:44:32;15.40;99.90
24250;DHT22;12379;49.820;8.648;2022-12-31T08:47:11;15.40;99.90
24250;DHT22;12379;49.820;8.648;2022-12-31T08:49:41;15.60;99.90
24250;DHT22;12379;49.820;8.648;2022-12-31T08:52:23;15.60;99.90
24250;DHT22;12379;49.820;8.648;2022-12-31T08:54:49;15.60;99.90
24250;DHT22;12379;49.820;8.648;2022-12-31T09:00:08;15.70;99.90
24250;DHT22;12379;49.820;8.648;2022-12-31T09:05:33;15.80;99.90
24250;DHT22;12379;49.820;8.648;2022-12-31T09:08:26;15.90;99.90
24250;DHT22;12379;49.820;8.648;2022-12-31T09:16:36;15.70;99.90
24250;DHT22;12379;49.820;8.648;2022-12-31T09:19:04;15.50;99.90
24250;DHT22;12379;49.820;8.648;2022-12-31T09:21:30;15.50;99.90
24250;DHT22;12379;49.820;8.648;2022-12-31T09:23:57;15.50;99.90
24250;DHT22;12379;49.820;8.648;2022-12-31T09:26:41;15.60;99.90
24250;DHT22;12379;49.820;8.648;2022-12-31T09:32:18;15.80;99.90
24250;DHT22;12379;49.820;8.648;2022-12-31T09:37:50;15.90;99.90
24250;DHT22;12379;49.820;8.648;2022-12-31T09:51:37;16.30;99.90
24250;DHT22;12379;49.820;8.648;2022-12-31T10:00:00;16.60;99.90
24250;DHT22;12379;49.820;8.648;2022-12-31T10:03:06;16.60;99.90
24250;DHT22;12379;49.820;8.648;2022-12-31T10:08:52;16.90;99.90
24250;DHT22;12379;49.820;8.648;2022-12-31T10:19:50;17.40;99.90
24250;DHT22;12379;49.820;8.648;2022-12-31T10:27:52;17.50;99.90
24250;DHT22;12379;49.820;8.648;2022-12-31T10:30:23;17.30;99.90
24250;DHT22;12379;49.820;8.648;2022-12-31T10:33:16;17.40;99.90
24250;DHT22;12379;49.820;8.648;2022-12-31T10:36:07;17.60;99.90
24250;DHT22;12379;49.820;8.648;2022-12-31T10:38:50;17.80;99.90
24250;DHT22;12379;49.820;8.648;2022-12-31T10:47:49;17.80;99.90
24250;DHT22;12379;49.820;8.648;2022-12-31T10:53:32;17.60;99.90
24250;DHT22;12379;49.820;8.648;2022-12-31T11:04:46;16.80;99.90
24250;DHT22;12379;49.820;8.648;2022-12-31T11:08:12;16.80;99.90
24250;DHT22;12379;49.820;8.648;2022-12-31T11:32:29;17.30;99.90
24250;DHT22;12379;49.820;8.648;2022-12-31T11:38:23;17.20;99.90
24250;DHT22;12379;49.820;8.648;2022-12-31T11:40:57;17.20;99.90
24250;DHT22;12379;49.820;8.648;2022-12-31T11:52:13;17.20;99.90
24250;DHT22;12379;49.820;8.648;2022-12-31T12:05:15;17.50;99.90
24250;DHT22;12379;49.820;8.648;2022-12-31T12:07:42;17.60;99.90
24250;DHT22;12379;49.820;8.648;2022-12-31T12:12:50;17.50;99.90
24250;DHT22;12379;49.820;8.648;2022-12-31T12:15:31;17.50;99.90
24250;DHT22;12379;49.820;8.648;2022-12-31T12:18:03;17.30;99.90
24250;DHT22;12379;49.820;8.648;2022-12-31T12:20:32;17.30;99.90
24250;DHT22;12379;49.820;8.648;2022-12-31T12:23:01;17.50;99.90
24250;DHT22;12379;49.820;8.648;2022-12-31T12:25:37;17.40;99.90
24250;DHT22;12379;49.820;8.648;2022-12-31T12:28:18;17.40;99.90
24250;DHT22;12379;49.820;8.648;2022-12-31T12:30:53;17.40;99.90
24250;DHT22;12379;49.820;8.648;2022-12-31T12:33:20;17.50;99.90
24250;DHT22;12379;49.820;8.648;2022-12-31T12:35:46;17.50;99.90
24250;DHT22;12379;49.820;8.648;2022-12-31T12:38:21;17.60;99.90
24250;DHT22;12379;49.820;8.648;2022-12-31T12:40:56;17.60;99.90
24250;DHT22;12379;49.820;8.648;2022-12-31T12:43:28;17.70;99.90
24250;DHT22;12379;49.820;8.648;2022-12-31T12:46:00;17.90;99.90
24250;DHT22;12379;49.820;8.648;2022-12-31T12:48:33;17.90;99.90
24250;DHT22;12379;49.820;8.648;2022-12-31T12:51:00;17.90;99.90
24250;DHT22;12379;49.820;8.648;2022-12-31T12:56:39;17.80;99.90
24250;DHT22;12379;49.820;8.648;2022-12-31T13:02:26;17.70;99.90
24250;DHT22;12379;49.820;8.648;2022-12-31T13:05:16;17.70;99.90
24250;DHT22;12379;49.820;8.648;2022-12-31T13:10:23;17.70;99.90
24250;DHT22;12379;49.820;8.648;2022-12-31T13:26:50;17.60;99.90
24250;DHT22;12379;49.820;8.648;2022-12-31T13:29:21;17.60;99.90
24250;DHT22;12379;49.820;8.648;2022-12-31T13:31:49;17.50;99.90
24250;DHT22;12379;49.820;8.648;2022-12-31T13:34:20;17.40;99.90
24250;DHT22;12379;49.820;8.648;2022-12-31T13:36:47;17.60;99.90
24250;DHT22;12379;49.820;8.648;2022-12-31T13:39:24;17.70;99.90
24250;DHT22;12379;49.820;8.648;2022-12-31T13:42:13;17.80;99.90
24250;DHT22;12379;49.820;8.648;2022-12-31T13:44:48;17.70;99.90
24250;DHT22;12379;49.820;8.648;2022-12-31T13:47:29;17.60;99.90
24250;DHT22;12379;49.820;8.648;2022-12-31T13:50:02;17.70;99.90
24250;DHT22;12379;49.820;8.648;2022-12-31T13:52:55;17.70;99.90
24250;DHT22;12379;49.820;8.648;2022-12-31T13:55:27;17.60;99.90
24250;DHT22;12379;49.820;8.648;2022-12-31T14:00:31;17.70;99.90
24250;DHT22;12379;49.820;8.648;2022-12-31T14:03:39;17.70;99.90
24250;DHT22;12379;49.820;8.648;2022-12-31T14:09:05;17.60;99.90
24250;DHT22;12379;49.820;8.648;2022-12-31T14:17:25;17.40;99.90
24250;DHT22;12379;49.820;8.648;2022-12-31T14:28:32;17.30;99.90
24250;DHT22;12379;49.820;8.648;2022-12-31T14:39:33;17.20;99.90
24250;DHT22;12379;49.820;8.648;2022-12-31T14:45:16;17.10;99.90
24250;DHT22;12379;49.820;8.648;2022-12-31T14:48:02;17.00;99.90
24250;DHT22;12379;49.820;8.648;2022-12-31T14:50:30;16.90;99.90
24250;DHT22;12379;49.820;8.648;2022-12-31T14:55:37;16.80;99.90
24250;DHT22;12379;49.820;8.648;2022-12-31T14:58:27;16.60;99.90
24250;DHT22;12379;49.820;8.648;2022-12-31T15:03:42;16.50;99.90
24250;DHT22;12379;49.820;8.648;2022-12-31T15:09:10;16.40;99.90
24250;DHT22;12379;49.820;8.648;2022-12-31T15:15:07;16.20;99.90
24250;DHT22;12379;49.820;8.648;2022-12-31T15:20:34;16.10;99.90
24250;DHT22;12379;49.820;8.648;2022-12-31T15:23:21;16.00;99.90
24250;DHT22;12379;49.820;8.648;2022-12-31T15:25:56;15.90;99.90
24250;DHT22;12379;49.820;8.648;2022-12-31T15:28:36;15.70;99.90
24250;DHT22;12379;49.820;8.648;2022-12-31T15:33:55;15.60;99.90
24250;DHT22;12379;49.820;8.648;2022-12-31T15:36:23;15.70;99.90
24250;DHT22;12379;49.820;8.648;2022-12-31T15:38:50;15.80;99.90
24250;DHT22;12379;49.820;8.648;2022-12-31T15:41:26;15.80;99.90
24250;DHT22;12379;49.820;8.648;2022-12-31T15:44:10;15.70;99.90
24250;DHT22;12379;49.820;8.648;2022-12-31T15:46:40;15.70;99.90
24250;DHT22;12379;49.820;8.648;2022-12-31T15:49:15;15.80;99.90
24250;DHT22;12379;49.820;8.648;2022-12-31T15:52:00;15.80;99.90
24250;DHT22;12379;49.820;8.648;2022-12-31T15:54:44;15.80;99.90
24250;DHT22;12379;49.820;8.648;2022-12-31T15:57:19;15.70;99.90
24250;DHT22;12379;49.820;8.648;2022-12-31T15:59:45;15.80;99.90
24250;DHT22;12379;49.820;8.648;2022-12-31T16:02:23;15.90;99.90
24250;DHT22;12379;49.820;8.648;2022-12-31T16:04:49;16.00;99.90
24250;DHT22;12379;49.820;8.648;2022-12-31T16:07:16;16.00;99.90
24250;DHT22;12379;49.820;8.648;2022-12-31T16:09:50;15.90;99.90
24250;DHT22;12379;49.820;8.648;2022-12-31T16:12:23;15.90;99.90
24250;DHT22;12379;49.820;8.648;2022-12-31T16:14:54;15.90;99.90
24250;DHT22;12379;49.820;8.648;2022-12-31T16:19:51;15.90;99.90
24250;DHT22;12379;49.820;8.648;2022-12-31T16:22:23;15.90;99.90
24250;DHT22;12379;49.820;8.648;2022-12-31T16:24:57;16.00;99.90
24250;DHT22;12379;49.820;8.648;2022-12-31T16:27:25;16.00;99.90
24250;DHT22;12379;49.820;8.648;2022-12-31T16:29:59;16.00;99.90
24250;DHT22;12379;49.820;8.648;2022-12-31T16:32:41;15.90;99.90
24250;DHT22;12379;49.820;8.648;2022-12-31T16:40:26;15.80;99.90
24250;DHT22;12379;49.820;8.648;2022-12-31T16:42:52;15.80;99.90
24250;DHT22;12379;49.820;8.648;2022-12-31T16:45:36;15.70;99.90
24250;DHT22;12379;49.820;8.648;2022-12-31T16:48:14;15.70;99.90
24250;DHT22;12379;49.820;8.648;2022-12-31T16:50:52;15.90;99.90
24250;DHT22;12379;49.820;8.648;2022-12-31T16:53:21;16.00;99.90
24250;DHT22;12379;49.820;8.648;2022-12-31T16:55:55;16.00;99.90
24250;DHT22;12379;49.820;8.648;2022-12-31T16:58:34;16.10;99.90
24250;DHT22;12379;49.820;8.648;2022-12-31T17:03:33;16.00;99.90
24250;DHT22;12379;49.820;8.648;2022-12-31T17:08:59;15.90;99.90
24250;DHT22;12379;49.820;8.648;2022-12-31T17:11:36;15.90;99.90
24250;DHT22;12379;49.820;8.648;2022-12-31T17:16:37;15.90;99.90
24250;DHT22;12379;49.820;8.648;2022-12-31T17:19:05;16.00;99.90
24250;DHT22;12379;49.820;8.648;2022-12-31T17:21:31;15.90;99.90
24250;DHT22;12379;49.820;8.648;2022-12-31T17:24:01;15.90;99.90
24250;DHT22;12379;49.820;8.648;2022-12-31T17:26:29;16.00;99.90
24250;DHT22;12379;49.820;8.648;2022-12-31T17:28:56;15.90;99.90
24250;DHT22;12379;49.820;8.648;2022-12-31T17:31:32;16.00;99.90
24250;DHT22;12379;49.820;8.648;2022-12-31T17:34:20;16.10;99.90
24250;DHT22;12379;49.820;8.648;2022-12-31T17:36:59;16.00;99.90
24250;DHT22;12379;49.820;8.648;2022-12-31T17:39:26;16.00;99.90
24250;DHT22;12379;49.820;8.648;2022-12-31T17:41:57;16.00;99.90
24250;DHT22;12379;49.820;8.648;2022-12-31T17:44:26;16.00;99.90
24250;DHT22;12379;49.820;8.648;2022-12-31T17:46:52;16.00;99.90
24250;DHT22;12379;49.820;8.648;2022-12-31T17:49:21;16.00;99.90
24250;DHT22;12379;49.820;8.648;2022-12-31T17:51:51;16.00;99.90
24250;DHT22;12379;49.820;8.648;2022-12-31T17:54:18;16.00;99.90
24250;DHT22;12379;49.820;8.648;2022-12-31T17:56:44;16.10;99.90
24250;DHT22;12379;49.820;8.648;2022-12-31T17:59:18;16.00;99.90
24250;DHT22;12379;49.820;8.648;2022-12-31T18:01:45;15.90;99.90
24250;DHT22;12379;49.820;8.648;2022-12-31T18:04:12;15.90;99.90
24250;DHT22;12379;49.820;8.648;2022-12-31T18:06:38;15.70;99.90
24250;DHT22;12379;49.820;8.648;2022-12-31T18:09:04;15.70;99.90
24250;DHT22;12379;49.820;8.648;2022-12-31T18:11:30;15.50;99.90
24250;DHT22;12379;49.820;8.648;2022-12-31T18:13:55;15.50;99.90
24250;DHT22;12379;49.820;8.648;2022-12-31T18:16:21;15.40;99.90
24250;DHT22;12379;49.820;8.648;2022-12-31T18:18:47;15.40;99.90
24250;DHT22;12379;49.820;8.648;2022-12-31T18:21:21;15.40;99.90
24250;DHT22;12379;49.820;8.648;2022-12-31T18:23:48;15.30;99.90
24250;DHT22;12379;49.820;8.648;2022-12-31T18:26:16;15.30;99.90
24250;DHT22;12379;49.820;8.648;2022-12-31T18:28:44;15.30;99.90
24250;DHT22;12379;49.820;8.648;2022-12-31T18:31:20;15.20;99.90
24250;DHT22;12379;49.820;8.648;2022-12-31T18:33:46;15.10;99.90
24250;DHT22;12379;49.820;8.648;2022-12-31T18:36:14;15.10;99.90
24250;DHT22;12379;49.820;8.648;2022-12-31T18:38:40;14.90;99.90
24250;DHT22;12379;49.820;8.648;2022-12-31T18:41:06;14.80;99.90
24250;DHT22;12379;49.820;8.648;2022-12-31T18:43:32;14.90;99.90
24250;DHT22;12379;49.820;8.648;2022-12-31T18:45:57;14.80;99.90
24250;DHT22;12379;49.820;8.648;2022-12-31T18:48:23;14.80;99.90
24250;DHT22;12379;49.820;8.648;2022-12-31T18:50:49;14.90;99.90
24250;DHT22;12379;49.820;8.648;2022-12-31T18:53:24;15.00;99.90
24250;DHT22;12379;49.820;8.648;2022-12-31T18:55:54;15.20;99.90
24250;DHT22;12379;49.820;8.648;2022-12-31T18:58:21;15.40;99.90
24250;DHT22;12379;49.820;8.648;2022-12-31T19:00:47;15.50;99.90
24250;DHT22;12379;49.820;8.648;2022-12-31T19:03:21;15.60;99.90
24250;DHT22;12379;49.820;8.648;2022-12-31T19:05:47;15.60;99.90
24250;DHT22;12379;49.820;8.648;2022-12-31T19:08:19;15.80;99.90
24250;DHT22;12379;49.820;8.648;2022-12-31T19:10:47;15.80;99.90
24250;DHT22;12379;49.820;8.648;2022-12-31T19:13:14;15.80;99.90
24250;DHT22;12379;49.820;8.648;2022-12-31T19:15:45;15.90;99.90
24250;DHT22;12379;49.820;8.648;2022-12-31T19:18:11;15.90;99.90
24250;DHT22;12379;49.820;8.648;2022-12-31T19:20:37;15.90;99.90
24250;DHT22;12379;49.820;8.648;2022-12-31T19:23:03;15.90;99.90
24250;DHT22;12379;49.820;8.648;2022-12-31T19:25:33;16.00;99.90
24250;DHT22;12379;49.820;8.648;2022-12-31T19:28:04;16.00;99.90
24250;DHT22;12379;49.820;8.648;2022-12-31T19:30:32;16.10;99.90
24250;DHT22;12379;49.820;8.648;2022-12-31T19:32:58;16.10;99.90
24250;DHT22;12379;49.820;8.648;2022-12-31T19:35:25;16.00;99.90
24250;DHT22;12379;49.820;8.648;2022-12-31T19:37:53;16.00;99.90
24250;DHT22;12379;49.820;8.648;2022-12-31T19:40:24;16.00;99.90
24250;DHT22;12379;49.820;8.648;2022-12-31T19:42:52;15.90;99.90
24250;DHT22;12379;49.820;8.648;2022-12-31T19:45:21;15.90;99.90
24250;DHT22;12379;49.820;8.648;2022-12-31T19:47:47;15.70;99.90
24250;DHT22;12379;49.820;8.648;2022-12-31T19:50:18;15.80;99.90
24250;DHT22;12379;49.820;8.648;2022-12-31T19:52:46;15.70;99.90
24250;DHT22;12379;49.820;8.648;2022-12-31T19:55:14;15.60;99.90
24250;DHT22;12379;49.820;8.648;2022-12-31T19:57:41;15.60;99.90
24250;DHT22;12379;49.820;8.648;2022-12-31T20:00:08;15.70;99.90
24250;DHT22;12379;49.820;8.648;2022-12-31T20:02:35;15.70;99.90
24250;DHT22;12379;49.820;8.648;2022-12-31T20:05:00;15.70;99.90
24250;DHT22;12379;49.820;8.648;2022-12-31T20:07:26;15.70;99.90
24250;DHT22;12379;49.820;8.648;2022-12-31T20:09:51;15.80;99.90
24250;DHT22;12379;49.820;8.648;2022-12-31T20:12:17;15.70;99.90
24250;DHT22;12379;49.820;8.648;2022-12-31T20:14:42;15.80;99.90
24250;DHT22;12379;49.820;8.648;2022-12-31T20:17:08;15.80;99.90
24250;DHT22;12379;49.820;8.648;2022-12-31T20:19:33;15.80;99.90